Terminal Aerodrome Forecast
Issued by NWS

Home | Current Version | Previous Version | Text Only | Print | Product List | Glossary On
Versions: 1 2 3 4 5 6 7 8 9 10 11 12 13 14 15 16 17 18 19 20 21 22 23 24
000
FTUS41 KOKX 192345
TAFSWF
TAF
KSWF 192345Z 2000/2106 14012KT P6SM BKN150
     FM201000 09014G22KT 3SM -RA BKN025 OVC100
     FM201400 09018G28KT 1SM RA BR OVC008
     FM201700 11013G18KT 1SM RA BR OVC007
     FM202100 11010KT 1SM -RA BR OVC007
     FM210100 VRB05KT 1SM -RA BR OVC004
      AMD NOT SKED=

USA.gov is the U.S. government's official web portal to all federal, state and local government web resources and services.